Portada
METAR-TAF:

METAR-TAF

Aeroports :

Amman, Jordània

latitud: 31-59N, longitud: 035-59E, altitud: 767 m

Observació

L'informe es va fer fa 1 hora i 0 minuts, a les 03:00 UTC
Vent 4 kt del Nord/Nord-Oest
Temperatura 21°C
Humitat 69%
Pressió 1011 hPa
Visibilitat: 5000 m
calitja

METAR: OJAM 220300Z 34004KT 5000 HZ NSC 21/15 Q1011 NOSIG

Hora: 07:00 (04:00 UTC)

Pronòstic

L'informe es va fer fa 5 hores i 0 minuts, a les 23:00 UTC
Pronòstic vàlid del 22 a les 00 UTC al 23 a les 06 UTC
Vent 8 kt del Nord-Oest
Visibilitat: 5000 m
calitja
Temporalment
l' 22 a les 03 UTC al 22 a les 05 UTC
Vent 3 kt amb direcció variable
Visibilitat: 4000 m
calitja
Temporalment
l' 22 a les 08 UTC al 22 a les 15 UTC
Vent 8 kt del Nord/Nord-Est

TAF: OJAM 212300Z 2200/2306 32008KT 5000 HZ NSC TEMPO 2203/2205 VRB03KT 4000 HZ NSC TEMPO 2208/2215 03008KT

Observacions i pronòstics meteorològics de més de 4000 aeroports (METAR i TAF).

Les estacions disponibles són els punts grocs i vermells al mapa.

Posi el ratolí al punt desitjat per veure el nom de l'estació.

Feu clic per veure les observacions i els pronòstics meteorològics.

Per canviar el mapa: feu clic els botons verds amb una creu de color negre per apropar; al botó verd amb un guió per allunyar la imatge; o en les fletxes verdes per a mapes adjacents.


METAR-TAF: